createdAt,value
2022-11-19T00:00:32.176Z,100986.25
2022-11-19T00:05:42.506Z,100992.44
2022-11-19T00:10:45.226Z,101010.16
2022-11-19T00:15:46.755Z,101019.88
2022-11-19T00:20:50.904Z,101023.75
2022-11-19T00:25:52.363Z,101024.22
2022-11-19T00:30:53.842Z,101025.84
2022-11-19T00:35:57.090Z,101034.19
2022-11-19T00:40:58.675Z,101031.09
2022-11-19T00:46:00.199Z,101035.75
2022-11-19T00:51:02.070Z,101056.09
2022-11-19T00:56:09.114Z,101069.78
2022-11-19T01:01:11.992Z,101064.59
2022-11-19T01:06:19.039Z,101070.28
2022-11-19T01:11:23.904Z,101085.31
2022-11-19T01:16:30.237Z,101089.19
2022-11-19T01:21:33.901Z,101088.47
2022-11-19T01:26:35.459Z,101096.53
2022-11-19T01:31:38.024Z,101096.78
2022-11-19T01:36:39.520Z,101091.31
2022-11-19T01:41:41.025Z,101100.25
2022-11-19T01:46:42.468Z,101123.22
2022-11-19T01:52:00.975Z,101105.25
2022-11-19T01:57:07.584Z,101105.91
2022-11-19T02:02:09.380Z,101107.06
2022-11-19T02:07:12.363Z,101131.81
2022-11-19T02:12:31.799Z,101126.88
2022-11-19T02:17:49.826Z,101113.94
2022-11-19T02:23:09.529Z,101128.22
2022-11-19T02:28:36.126Z,101126.66
2022-11-19T02:33:58.446Z,101125.47
2022-11-19T02:39:06.364Z,101133.91
2022-11-19T02:44:26.260Z,101132.94
2022-11-19T02:49:31.847Z,101125.97
2022-11-19T02:54:33.353Z,101129.91
2022-11-19T03:00:01.826Z,101127.13
2022-11-19T03:05:09.034Z,101136.91
2022-11-19T03:10:11.919Z,101136.53
2022-11-19T03:16:02.977Z,101156.75
2022-11-19T03:21:13.876Z,101152.38
2022-11-19T03:26:32.849Z,101164.16
2022-11-19T03:31:35.884Z,101156.78
2022-11-19T03:36:40.902Z,101174.63
2022-11-19T03:41:46.494Z,101176.56
2022-11-19T03:46:53.134Z,101176.75
2022-11-19T03:52:17.367Z,101180.91
2022-11-19T03:57:22.424Z,101197.81
2022-11-19T04:02:23.900Z,101206.53
2022-11-19T04:07:26.122Z,101201.16
2022-11-19T04:12:27.598Z,101226.56
2022-11-19T04:17:31.734Z,101233.59
2022-11-19T04:22:33.301Z,101234.81
2022-11-19T04:27:34.802Z,101232.59
2022-11-19T04:32:36.247Z,101229.25
2022-11-19T04:37:37.738Z,101241.47
2022-11-19T04:42:39.228Z,101261.44
2022-11-19T04:47:40.731Z,101259.50
2022-11-19T04:52:42.233Z,101276.03
2022-11-19T04:57:43.712Z,101286.84
2022-11-19T05:02:45.713Z,101288.13
2022-11-19T05:07:47.189Z,101286.78
2022-11-19T05:12:48.739Z,101273.91
2022-11-19T05:17:50.240Z,101276.47
2022-11-19T05:22:51.729Z,101303.88
2022-11-19T05:27:53.240Z,101281.22
2022-11-19T05:32:54.679Z,101289.63
2022-11-19T05:37:56.164Z,101296.88
2022-11-19T05:43:04.203Z,101311.78
2022-11-19T05:48:06.754Z,101307.53
2022-11-19T05:53:08.607Z,101321.56
2022-11-19T05:58:10.254Z,101307.75
2022-11-19T06:03:11.817Z,101303.41
2022-11-19T06:08:13.397Z,101320.03
2022-11-19T06:13:14.952Z,101318.31
2022-11-19T06:18:16.552Z,101318.47
2022-11-19T06:23:18.016Z,101324.06
2022-11-19T06:28:19.470Z,101332.56
2022-11-19T06:33:20.953Z,101337.94
2022-11-19T06:38:22.406Z,101341.97
2022-11-19T06:43:23.931Z,101345.00
2022-11-19T06:48:25.452Z,101353.03
2022-11-19T06:53:27.311Z,101341.59
2022-11-19T06:58:28.841Z,101366.44
2022-11-19T07:03:30.556Z,101359.88
2022-11-19T07:08:36.138Z,101367.16
2022-11-19T07:13:56.269Z,101371.81
2022-11-19T07:18:59.637Z,101377.31
2022-11-19T07:24:02.799Z,101380.66
2022-11-19T07:29:06.811Z,101397.31
2022-11-19T07:34:11.279Z,101384.44
2022-11-19T07:39:12.962Z,101382.00
2022-11-19T07:44:14.476Z,101399.25
2022-11-19T07:49:16.026Z,101398.06
2022-11-19T07:54:17.762Z,101409.41
2022-11-19T07:59:19.571Z,101414.72
2022-11-19T08:04:21.300Z,101418.97
2022-11-19T08:09:22.797Z,101433.44
2022-11-19T08:14:24.376Z,101430.03
2022-11-19T08:19:25.856Z,101431.41
2022-11-19T08:24:27.349Z,101439.06
2022-11-19T08:29:28.843Z,101437.34
2022-11-19T08:34:32.172Z,101452.75
2022-11-19T08:39:33.727Z,101437.34
2022-11-19T08:44:35.213Z,101460.38
2022-11-19T08:49:36.778Z,101465.75
2022-11-19T08:54:38.284Z,101458.22
2022-11-19T08:59:40.857Z,101473.56
2022-11-19T09:04:42.315Z,101466.47
2022-11-19T09:09:43.861Z,101485.09
2022-11-19T09:14:45.314Z,101489.16
2022-11-19T09:19:46.827Z,101493.75
2022-11-19T09:24:48.399Z,101490.00
2022-11-19T09:29:49.904Z,101489.41
2022-11-19T09:34:51.428Z,101500.06
2022-11-19T09:39:52.938Z,101505.53
2022-11-19T09:44:54.364Z,101512.50
2022-11-19T09:50:26.679Z,101521.38
2022-11-19T09:55:43.888Z,101511.88
2022-11-19T10:00:45.987Z,101516.66
2022-11-19T10:06:31.467Z,101521.19
2022-11-19T10:12:03.097Z,101524.41
2022-11-19T10:17:24.084Z,101536.63
2022-11-19T10:22:39.841Z,101535.06
2022-11-19T10:27:55.853Z,101528.41
2022-11-19T10:33:02.238Z,101521.09
2022-11-19T10:38:11.838Z,101504.38
2022-11-19T10:43:25.293Z,101518.03
2022-11-19T10:48:56.260Z,101532.41
2022-11-19T10:53:58.118Z,101514.78
2022-11-19T10:59:16.451Z,101516.88
2022-11-19T11:04:21.656Z,101535.38
2022-11-19T11:09:49.435Z,101516.53
2022-11-19T11:14:54.426Z,101525.47
2022-11-19T11:20:00.189Z,101506.41
2022-11-19T11:25:07.086Z,101495.66
2022-11-19T11:30:12.095Z,101510.47
2022-11-19T11:35:33.161Z,101502.56
2022-11-19T11:40:35.094Z,101501.72
2022-11-19T11:45:37.396Z,101510.75
2022-11-19T11:50:38.988Z,101497.47
2022-11-19T11:55:40.522Z,101498.44
2022-11-19T12:00:45.371Z,101498.34
2022-11-19T12:06:02.232Z,101499.59
2022-11-19T12:11:56.399Z,101484.53
2022-11-19T12:17:07.084Z,101481.16
2022-11-19T12:22:14.543Z,101473.66
2022-11-19T12:27:34.314Z,101485.94
2022-11-19T12:33:17.280Z,101485.75
2022-11-19T12:38:27.037Z,101477.66
2022-11-19T12:43:55.826Z,101476.44
2022-11-19T12:49:19.483Z,101479.19
2022-11-19T12:54:35.185Z,101479.13
2022-11-19T12:59:42.673Z,101477.50
2022-11-19T13:04:51.299Z,101472.66
2022-11-19T13:10:02.617Z,101468.81
2022-11-19T13:15:09.201Z,101473.53
2022-11-19T13:20:23.280Z,101476.38
2022-11-19T13:25:34.970Z,101468.69
2022-11-19T13:30:36.646Z,101450.69
2022-11-19T13:35:54.017Z,101456.06
2022-11-19T13:41:01.804Z,101449.94
2022-11-19T13:46:15.303Z,101445.06
2022-11-19T13:51:44.688Z,101433.38
2022-11-19T13:56:48.671Z,101434.78
2022-11-19T14:02:34.985Z,101437.44
2022-11-19T14:07:47.259Z,101434.78
2022-11-19T14:13:27.608Z,101434.41
2022-11-19T14:18:56.019Z,101429.13
2022-11-19T14:24:15.676Z,101450.69
2022-11-19T14:29:26.860Z,101444.94
2022-11-19T14:34:47.822Z,101447.97
2022-11-19T14:40:15.432Z,101440.59
2022-11-19T14:45:19.022Z,101428.59
2022-11-19T14:50:28.907Z,101427.25
2022-11-19T14:55:34.005Z,101444.38
2022-11-19T15:00:38.162Z,101443.88
2022-11-19T15:05:42.592Z,101454.41
2022-11-19T15:11:09.037Z,101446.56
2022-11-19T15:16:26.397Z,101454.81
2022-11-19T15:21:55.822Z,101454.97
2022-11-19T15:27:06.612Z,101455.66
2022-11-19T15:32:32.541Z,101460.38
2022-11-19T15:37:52.519Z,101465.13
2022-11-19T15:43:29.244Z,101473.53
2022-11-19T15:49:10.604Z,101470.56
2022-11-19T15:54:12.476Z,101467.59
2022-11-19T15:59:17.250Z,101469.69
2022-11-19T16:04:18.903Z,101468.44
2022-11-19T16:09:24.886Z,101475.38
2022-11-19T16:14:47.205Z,101469.22
2022-11-19T16:20:10.088Z,101474.13
2022-11-19T16:25:39.485Z,101493.16
2022-11-19T16:30:48.155Z,101508.16
2022-11-19T16:35:53.232Z,101511.88
2022-11-19T16:41:15.253Z,101511.47
2022-11-19T16:46:20.821Z,101507.91
2022-11-19T16:51:31.445Z,101497.94
2022-11-19T16:56:45.917Z,101498.69
2022-11-19T17:01:57.168Z,101501.69
2022-11-19T17:06:59.388Z,101502.81
2022-11-19T17:12:19.288Z,101497.25
2022-11-19T17:17:47.107Z,101504.28
2022-11-19T17:22:48.734Z,101491.88
2022-11-19T17:27:54.399Z,101495.50
2022-11-19T17:32:59.772Z,101504.00
2022-11-19T17:38:10.568Z,101492.69
2022-11-19T17:43:31.495Z,101510.47
2022-11-19T17:48:34.748Z,101508.56
2022-11-19T17:53:36.301Z,101511.94
2022-11-19T17:58:37.925Z,101504.91
2022-11-19T18:03:39.527Z,101505.38
2022-11-19T18:08:42.200Z,101508.25
2022-11-19T18:13:44.975Z,101504.78
2022-11-19T18:18:46.592Z,101507.75
2022-11-19T18:23:49.888Z,101495.75
2022-11-19T18:28:51.556Z,101499.16
2022-11-19T18:33:54.033Z,101485.56
2022-11-19T18:38:55.671Z,101477.00
2022-11-19T18:44:15.574Z,101479.69
2022-11-19T18:49:17.088Z,101473.63
2022-11-19T18:54:18.950Z,101462.19
2022-11-19T18:59:20.965Z,101485.38
2022-11-19T19:04:23.323Z,101468.25
2022-11-19T19:09:25.763Z,101493.69
2022-11-19T19:14:27.440Z,101481.03
2022-11-19T19:19:28.931Z,101480.47
2022-11-19T19:24:32.367Z,101482.34
2022-11-19T19:29:33.969Z,101482.88
2022-11-19T19:34:36.294Z,101476.63
2022-11-19T19:39:37.872Z,101485.19
2022-11-19T19:44:39.413Z,101475.19
2022-11-19T19:49:42.464Z,101481.63
2022-11-19T19:54:43.967Z,101482.50
2022-11-19T19:59:45.534Z,101488.75
2022-11-19T20:04:47.095Z,101492.56
2022-11-19T20:10:09.004Z,101491.31
2022-11-19T20:15:10.692Z,101467.06
2022-11-19T20:20:12.448Z,101498.03
2022-11-19T20:25:14.022Z,101485.56
2022-11-19T20:30:15.841Z,101502.81
2022-11-19T20:35:17.368Z,101497.50
2022-11-19T20:40:18.853Z,101499.06
2022-11-19T20:45:30.068Z,101498.25
2022-11-19T20:50:32.027Z,101470.19
2022-11-19T20:55:33.566Z,101484.00
2022-11-19T21:00:35.130Z,101488.84
2022-11-19T21:05:36.701Z,101496.47
2022-11-19T21:10:40.480Z,101440.28
2022-11-19T21:15:42.033Z,101443.78
2022-11-19T21:20:43.583Z,101486.09
2022-11-19T21:25:45.696Z,101470.47
2022-11-19T21:30:58.166Z,101441.31
2022-11-19T21:36:00.299Z,101463.75
2022-11-19T21:41:01.922Z,101465.75
2022-11-19T21:46:07.043Z,101470.38
2022-11-19T21:51:08.913Z,101460.75
2022-11-19T21:56:10.588Z,101440.66
2022-11-19T22:01:12.294Z,101419.94
2022-11-19T22:06:13.918Z,101401.38
2022-11-19T22:11:33.674Z,101442.31
2022-11-19T22:16:37.772Z,101432.50
2022-11-19T22:21:40.165Z,101438.25
2022-11-19T22:26:41.684Z,101434.63
2022-11-19T22:31:43.216Z,101407.91
2022-11-19T22:36:48.921Z,101426.94
2022-11-19T22:41:50.508Z,101431.63
2022-11-19T22:46:52.536Z,101409.75
2022-11-19T22:51:54.385Z,101400.78
2022-11-19T22:56:56.015Z,101398.53
2022-11-19T23:01:57.650Z,101434.91
2022-11-19T23:06:59.317Z,101417.53
2022-11-19T23:12:19.762Z,101391.41
2022-11-19T23:17:21.287Z,101397.38
2022-11-19T23:22:22.911Z,101414.00
2022-11-19T23:27:24.484Z,101396.75
2022-11-19T23:32:26.093Z,101360.44
2022-11-19T23:37:27.646Z,101349.41
2022-11-19T23:42:38.177Z,101388.97
2022-11-19T23:47:39.805Z,101392.53
2022-11-19T23:52:41.596Z,101364.53
2022-11-19T23:57:43.122Z,101341.72
